createdAt,value
2022-10-15T00:00:02.208Z,16.11
2022-10-15T00:02:23.741Z,16.18
2022-10-15T00:04:45.302Z,16.25
2022-10-15T00:07:06.825Z,16.31
2022-10-15T00:09:28.407Z,16.27
2022-10-15T00:11:49.980Z,16.29
2022-10-15T00:14:11.511Z,16.31
2022-10-15T00:16:33.626Z,16.32
2022-10-15T00:18:57.375Z,16.32
2022-10-15T00:21:20.092Z,16.32
2022-10-15T00:23:45.201Z,16.32
2022-10-15T00:26:09.350Z,16.34
2022-10-15T00:28:33.519Z,16.26
2022-10-15T00:33:30.761Z,16.13
2022-10-15T00:36:11.241Z,16.26
2022-10-15T00:38:33.562Z,16.28
2022-10-15T00:40:55.121Z,16.30
2022-10-15T00:43:16.589Z,16.33
2022-10-15T00:45:38.075Z,16.18
2022-10-15T00:47:59.560Z,16.26
2022-10-15T00:50:27.266Z,16.28
2022-10-15T00:53:02.068Z,16.27
2022-10-15T00:55:36.507Z,16.37
2022-10-15T01:00:34.527Z,16.42
2022-10-15T01:02:56.068Z,16.41
2022-10-15T01:05:18.226Z,16.37
2022-10-15T01:07:39.706Z,16.38
2022-10-15T01:10:02.692Z,16.39
2022-10-15T01:12:58.850Z,16.41
2022-10-15T01:15:31.117Z,16.38
2022-10-15T01:17:59.058Z,16.40
2022-10-15T01:20:58.338Z,16.44
2022-10-15T01:23:34.895Z,16.22
2022-10-15T01:25:59.127Z,16.32
2022-10-15T01:28:43.251Z,16.29
2022-10-15T01:31:20.582Z,16.25
2022-10-15T01:33:51.473Z,16.22
2022-10-15T01:36:18.544Z,16.27
2022-10-15T01:38:55.940Z,16.16
2022-10-15T01:41:44.416Z,16.21
2022-10-15T01:44:15.753Z,15.99
2022-10-15T01:46:55.217Z,15.94
2022-10-15T01:49:26.120Z,15.99
2022-10-15T01:51:49.596Z,16.08
2022-10-15T01:54:16.183Z,16.10
2022-10-15T01:56:38.797Z,16.01
2022-10-15T01:59:01.286Z,16.18
2022-10-15T02:01:22.975Z,16.12
2022-10-15T02:03:53.841Z,16.10
2022-10-15T02:06:44.642Z,16.14
2022-10-15T02:09:24.991Z,16.15
2022-10-15T02:12:19.602Z,16.12
2022-10-15T02:14:53.649Z,16.16
2022-10-15T02:17:18.493Z,16.22
2022-10-15T02:20:01.920Z,16.24
2022-10-15T02:22:52.285Z,16.29
2022-10-15T02:25:21.695Z,16.29
2022-10-15T02:27:45.863Z,16.28
2022-10-15T02:30:09.410Z,16.18
2022-10-15T02:32:32.732Z,16.17
2022-10-15T02:34:54.739Z,16.16
2022-10-15T02:37:21.020Z,16.16
2022-10-15T02:39:42.508Z,16.12
2022-10-15T02:42:04.508Z,16.19
2022-10-15T02:44:26.079Z,15.93
2022-10-15T02:46:48.117Z,16.07
2022-10-15T02:49:09.589Z,16.14
2022-10-15T02:51:35.550Z,16.10
2022-10-15T02:53:57.069Z,16.06
2022-10-15T02:56:18.609Z,16.07
2022-10-15T02:58:40.167Z,16.13
2022-10-15T03:01:01.733Z,16.16
2022-10-15T03:03:23.486Z,16.18
2022-10-15T03:05:45.809Z,16.24
2022-10-15T03:08:07.260Z,16.26
2022-10-15T03:10:28.750Z,16.24
2022-10-15T03:12:50.206Z,16.25
2022-10-15T03:15:11.680Z,16.30
2022-10-15T03:17:33.189Z,16.29
2022-10-15T03:19:54.655Z,16.33
2022-10-15T03:22:16.130Z,16.36
2022-10-15T03:24:37.653Z,16.42
2022-10-15T03:26:59.125Z,16.45
2022-10-15T03:29:20.554Z,16.44
2022-10-15T03:31:42.054Z,16.27
2022-10-15T03:34:03.708Z,16.25
2022-10-15T03:36:25.885Z,16.32
2022-10-15T03:38:47.365Z,16.33
2022-10-15T03:41:08.916Z,16.26
2022-10-15T03:43:31.065Z,16.26
2022-10-15T03:45:53.330Z,16.30
2022-10-15T03:48:14.774Z,16.27
2022-10-15T03:50:36.310Z,16.34
2022-10-15T03:52:58.289Z,16.34
2022-10-15T03:55:19.921Z,16.36
2022-10-15T03:57:42.192Z,16.34
2022-10-15T04:00:06.003Z,16.35
2022-10-15T04:02:27.580Z,16.29
2022-10-15T04:04:52.909Z,16.24
2022-10-15T04:07:14.398Z,16.19
2022-10-15T04:09:35.896Z,16.26
2022-10-15T04:11:57.425Z,16.27
2022-10-15T04:14:20.215Z,16.24
2022-10-15T04:16:41.896Z,16.25
2022-10-15T04:19:07.259Z,16.21
2022-10-15T04:21:31.758Z,16.23
2022-10-15T04:23:53.213Z,16.24
2022-10-15T04:26:14.731Z,16.22
2022-10-15T04:28:36.286Z,16.28
2022-10-15T04:30:59.138Z,16.24
2022-10-15T04:33:20.580Z,16.21
2022-10-15T04:35:42.178Z,16.25
2022-10-15T04:38:03.630Z,16.22
2022-10-15T04:40:25.384Z,16.24
2022-10-15T04:42:46.859Z,16.20
2022-10-15T04:45:09.017Z,16.25
2022-10-15T04:47:30.462Z,16.25
2022-10-15T04:49:51.914Z,16.24
2022-10-15T04:52:13.352Z,16.25
2022-10-15T04:54:34.765Z,16.25
2022-10-15T04:56:56.325Z,16.28
2022-10-15T04:59:17.775Z,16.08
2022-10-15T05:01:39.258Z,16.05
2022-10-15T05:04:00.737Z,16.08
2022-10-15T05:06:22.574Z,15.96
2022-10-15T05:08:44.822Z,16.00
2022-10-15T05:11:08.837Z,16.01
2022-10-15T05:13:31.282Z,16.15
2022-10-15T05:15:52.782Z,15.96
2022-10-15T05:18:14.248Z,15.90
2022-10-15T05:20:35.706Z,15.94
2022-10-15T05:22:57.146Z,15.87
2022-10-15T05:25:18.709Z,15.85
2022-10-15T05:27:40.210Z,15.90
2022-10-15T05:30:01.825Z,15.73
2022-10-15T05:34:45.264Z,15.92
2022-10-15T05:37:06.879Z,15.94
2022-10-15T05:39:28.344Z,15.95
2022-10-15T05:41:49.864Z,15.95
2022-10-15T05:44:11.301Z,15.94
2022-10-15T05:46:32.784Z,15.92
2022-10-15T05:48:56.163Z,15.93
2022-10-15T05:51:18.185Z,15.99
2022-10-15T05:53:40.617Z,16.02
2022-10-15T05:56:02.144Z,16.05
2022-10-15T05:58:23.598Z,16.09
2022-10-15T06:00:45.350Z,16.07
2022-10-15T06:03:06.892Z,16.12
2022-10-15T06:05:28.366Z,16.15
2022-10-15T06:07:49.953Z,16.18
2022-10-15T06:10:11.471Z,16.22
2022-10-15T06:12:32.905Z,16.27
2022-10-15T06:14:54.379Z,16.32
2022-10-15T06:17:16.045Z,16.38
2022-10-15T06:19:37.492Z,16.38
2022-10-15T06:21:58.915Z,16.46
2022-10-15T06:24:20.389Z,16.58
2022-10-15T06:26:41.829Z,16.60
2022-10-15T06:29:03.420Z,16.61
2022-10-15T06:31:25.428Z,16.52
2022-10-15T06:33:46.925Z,16.55
2022-10-15T06:36:10.619Z,16.66
2022-10-15T06:38:32.939Z,16.75
2022-10-15T06:40:54.464Z,16.98
2022-10-15T06:43:15.924Z,17.12
2022-10-15T06:45:39.516Z,17.10
2022-10-15T06:48:00.982Z,17.18
2022-10-15T06:50:22.458Z,17.23
2022-10-15T06:52:44.446Z,17.21
2022-10-15T06:55:06.473Z,17.22
2022-10-15T06:57:28.658Z,17.28
2022-10-15T06:59:50.121Z,17.36
2022-10-15T07:02:14.023Z,17.29
2022-10-15T07:04:35.504Z,17.30
2022-10-15T07:06:56.998Z,17.34
2022-10-15T07:09:19.251Z,17.33
2022-10-15T07:11:40.784Z,17.09
2022-10-15T07:14:02.643Z,17.21
2022-10-15T07:16:24.283Z,17.25
2022-10-15T07:18:48.283Z,17.05
2022-10-15T07:23:36.910Z,17.07
2022-10-15T07:25:59.976Z,17.25
2022-10-15T07:28:21.536Z,17.06
2022-10-15T07:30:43.137Z,16.95
2022-10-15T07:33:04.593Z,16.78
2022-10-15T07:35:27.953Z,16.70
2022-10-15T07:37:50.728Z,16.58
2022-10-15T07:40:12.451Z,16.39
2022-10-15T07:42:33.909Z,16.39
2022-10-15T07:44:55.769Z,16.52
2022-10-15T07:47:17.361Z,16.43
2022-10-15T07:49:38.815Z,16.37
2022-10-15T07:52:00.252Z,16.32
2022-10-15T07:54:21.869Z,16.41
2022-10-15T07:56:43.324Z,16.51
2022-10-15T07:59:04.797Z,16.55
2022-10-15T08:01:26.304Z,16.71
2022-10-15T08:03:48.096Z,16.69
2022-10-15T08:06:09.553Z,16.92
2022-10-15T08:08:31.481Z,17.11
2022-10-15T08:10:53.554Z,17.04
2022-10-15T08:13:15.021Z,17.08
2022-10-15T08:15:39.691Z,17.06
2022-10-15T08:18:01.185Z,16.94
2022-10-15T08:20:25.503Z,17.01
2022-10-15T08:22:46.976Z,17.16
2022-10-15T08:25:08.815Z,17.24
2022-10-15T08:27:30.567Z,17.48
2022-10-15T08:29:52.093Z,17.61
2022-10-15T08:32:13.641Z,17.50
2022-10-15T08:34:35.143Z,17.42
2022-10-15T08:36:56.655Z,17.34
2022-10-15T08:39:18.225Z,17.47
2022-10-15T08:41:52.168Z,17.43
2022-10-15T08:44:46.835Z,17.37
2022-10-15T08:47:31.112Z,17.29
2022-10-15T08:49:56.595Z,17.09
2022-10-15T08:52:28.529Z,17.23
2022-10-15T08:54:51.065Z,17.15
2022-10-15T08:58:00.646Z,17.23
2022-10-15T09:00:23.649Z,17.37
2022-10-15T09:03:09.793Z,17.61
2022-10-15T09:05:47.781Z,17.88
2022-10-15T09:08:25.977Z,18.07
2022-10-15T09:10:51.938Z,18.15
2022-10-15T09:13:33.576Z,18.35
2022-10-15T09:16:17.579Z,18.71
2022-10-15T09:18:47.249Z,18.88
2022-10-15T09:21:11.424Z,18.87
2022-10-15T09:23:34.457Z,18.70
2022-10-15T09:26:12.485Z,18.75
2022-10-15T09:28:48.490Z,18.45
2022-10-15T09:31:15.922Z,18.17
2022-10-15T09:33:47.427Z,18.24
2022-10-15T09:36:46.832Z,18.30
2022-10-15T09:39:08.308Z,18.13
2022-10-15T09:42:07.313Z,18.16
2022-10-15T09:44:36.040Z,18.09
2022-10-15T09:46:57.542Z,17.90
2022-10-15T09:49:32.513Z,18.03
2022-10-15T09:52:20.870Z,18.03
2022-10-15T09:54:50.737Z,18.07
2022-10-15T09:57:15.059Z,18.15
2022-10-15T09:59:36.637Z,18.27
2022-10-15T10:02:02.621Z,18.62
2022-10-15T10:04:28.073Z,18.85
2022-10-15T10:06:56.734Z,18.91
2022-10-15T10:09:25.476Z,18.93
2022-10-15T10:11:56.237Z,18.73
2022-10-15T10:14:33.983Z,18.98
2022-10-15T10:17:16.776Z,19.29
2022-10-15T10:19:39.149Z,19.50
2022-10-15T10:22:26.841Z,19.84
2022-10-15T10:24:48.568Z,19.99
2022-10-15T10:27:23.197Z,19.97
2022-10-15T10:29:49.987Z,20.08
2022-10-15T10:32:23.515Z,19.92
2022-10-15T10:34:50.032Z,20.03
2022-10-15T10:37:13.986Z,19.81
2022-10-15T10:39:36.603Z,19.68
2022-10-15T10:42:06.291Z,19.98
2022-10-15T10:44:31.224Z,19.76
2022-10-15T10:47:03.536Z,19.79
2022-10-15T10:49:37.705Z,20.22
2022-10-15T10:51:59.466Z,20.62
2022-10-15T10:54:20.961Z,20.75
2022-10-15T10:56:44.694Z,20.19
2022-10-15T10:59:28.217Z,19.99
2022-10-15T11:01:50.704Z,19.70
2022-10-15T11:04:17.039Z,19.31
2022-10-15T11:06:56.219Z,19.27
2022-10-15T11:09:55.281Z,19.18
2022-10-15T11:12:36.868Z,19.15
2022-10-15T11:15:17.576Z,19.19
2022-10-15T11:17:57.676Z,18.99
2022-10-15T11:20:58.726Z,18.98
2022-10-15T11:23:51.118Z,19.15
2022-10-15T11:26:21.361Z,19.15
2022-10-15T11:29:10.206Z,19.14
2022-10-15T11:31:55.222Z,19.05
2022-10-15T11:35:03.268Z,19.29
2022-10-15T11:37:32.460Z,19.61
2022-10-15T11:40:05.493Z,19.47
2022-10-15T11:42:55.269Z,19.56
2022-10-15T11:45:34.910Z,19.99
2022-10-15T11:48:10.941Z,20.45
2022-10-15T11:50:53.949Z,20.35
2022-10-15T11:53:48.970Z,20.37
2022-10-15T11:56:38.916Z,20.63
2022-10-15T11:59:04.453Z,20.67
2022-10-15T12:01:25.902Z,20.81
2022-10-15T12:03:58.013Z,20.90
2022-10-15T12:06:22.801Z,20.84
2022-10-15T12:08:47.137Z,20.53
2022-10-15T12:11:14.793Z,20.85
2022-10-15T12:13:44.073Z,20.46
2022-10-15T12:16:33.118Z,20.34
2022-10-15T12:19:08.091Z,20.27
2022-10-15T12:21:36.691Z,20.18
2022-10-15T12:23:58.631Z,20.14
2022-10-15T12:26:33.300Z,19.93
2022-10-15T12:29:00.772Z,19.96
2022-10-15T12:31:25.114Z,19.82
2022-10-15T12:33:56.976Z,19.70
2022-10-15T12:36:28.533Z,19.66
2022-10-15T12:39:47.668Z,19.79
2022-10-15T12:42:27.820Z,20.32
2022-10-15T12:44:50.359Z,20.07
2022-10-15T12:47:11.936Z,19.96
2022-10-15T12:49:33.421Z,19.73
2022-10-15T12:51:56.297Z,19.83
2022-10-15T12:54:41.088Z,19.70
2022-10-15T12:57:24.095Z,19.54
2022-10-15T12:59:45.714Z,19.66
2022-10-15T13:02:33.269Z,19.59
2022-10-15T13:04:54.902Z,19.52
2022-10-15T13:07:16.444Z,19.44
2022-10-15T13:09:38.232Z,19.59
2022-10-15T13:12:01.090Z,19.68
2022-10-15T13:14:28.765Z,20.04
2022-10-15T13:16:50.719Z,19.64
2022-10-15T13:19:21.370Z,19.54
2022-10-15T13:21:51.010Z,19.52
2022-10-15T13:24:18.030Z,19.67
2022-10-15T13:26:39.532Z,19.61
2022-10-15T13:29:01.158Z,19.88
2022-10-15T13:31:30.268Z,19.84
2022-10-15T13:33:54.472Z,19.92
2022-10-15T13:36:31.970Z,19.95
2022-10-15T13:39:01.313Z,19.82
2022-10-15T13:41:25.795Z,19.91
2022-10-15T13:43:58.568Z,20.06
2022-10-15T13:46:20.207Z,19.86
2022-10-15T13:51:13.284Z,20.14
2022-10-15T13:53:37.542Z,19.74
2022-10-15T13:56:02.420Z,19.64
2022-10-15T13:58:33.303Z,19.42
2022-10-15T14:01:03.294Z,19.33
2022-10-15T14:03:27.527Z,19.41
2022-10-15T14:05:51.294Z,19.35
2022-10-15T14:08:28.069Z,19.51
2022-10-15T14:10:51.800Z,19.61
2022-10-15T14:13:13.410Z,19.24
2022-10-15T14:15:50.104Z,19.41
2022-10-15T14:18:15.035Z,19.60
2022-10-15T14:20:36.856Z,19.85
2022-10-15T14:22:58.342Z,19.73
2022-10-15T14:25:25.235Z,19.54
2022-10-15T14:27:46.959Z,19.54
2022-10-15T14:30:14.590Z,19.17
2022-10-15T14:32:47.725Z,19.41
2022-10-15T14:35:31.042Z,19.73
2022-10-15T14:38:01.577Z,20.01
2022-10-15T14:40:23.081Z,20.32
2022-10-15T14:43:02.541Z,20.54
2022-10-15T14:45:29.534Z,20.80
2022-10-15T14:48:03.306Z,20.82
2022-10-15T14:50:28.015Z,20.87
2022-10-15T14:52:52.194Z,20.29
2022-10-15T14:55:33.368Z,19.86
2022-10-15T14:57:55.499Z,19.71
2022-10-15T15:00:28.210Z,19.51
2022-10-15T15:02:50.099Z,19.50
2022-10-15T15:05:11.560Z,19.30
2022-10-15T15:07:33.105Z,19.42
2022-10-15T15:09:54.617Z,19.34
2022-10-15T15:12:22.868Z,19.38
2022-10-15T15:14:47.126Z,19.48
2022-10-15T15:17:15.898Z,19.57
2022-10-15T15:19:42.964Z,19.69
2022-10-15T15:22:05.379Z,19.51
2022-10-15T15:24:26.882Z,19.40
2022-10-15T15:26:48.337Z,19.27
2022-10-15T15:29:13.911Z,19.20
2022-10-15T15:31:35.600Z,19.29
2022-10-15T15:33:57.122Z,19.12
2022-10-15T15:36:23.423Z,19.29
2022-10-15T15:38:45.943Z,19.24
2022-10-15T15:41:21.188Z,19.12
2022-10-15T15:43:43.247Z,19.11
2022-10-15T15:46:04.786Z,19.03
2022-10-15T15:48:26.281Z,18.92
2022-10-15T15:50:47.938Z,18.77
2022-10-15T15:53:12.055Z,18.63
2022-10-15T15:55:33.530Z,18.47
2022-10-15T15:57:55.044Z,18.56
2022-10-15T16:00:17.173Z,18.59
2022-10-15T16:02:39.034Z,18.57
2022-10-15T16:05:01.880Z,18.49
2022-10-15T16:07:27.414Z,18.41
2022-10-15T16:09:49.849Z,18.33
2022-10-15T16:12:11.344Z,18.27
2022-10-15T16:14:32.944Z,18.37
2022-10-15T16:16:54.411Z,18.43
2022-10-15T16:19:15.940Z,18.24
2022-10-15T16:21:37.538Z,18.17
2022-10-15T16:24:02.030Z,18.04
2022-10-15T16:26:23.722Z,18.18
2022-10-15T16:28:45.387Z,18.17
2022-10-15T16:31:18.718Z,18.23
2022-10-15T16:33:40.183Z,18.29
2022-10-15T16:36:01.672Z,18.11
2022-10-15T16:38:24.223Z,18.12
2022-10-15T16:40:47.473Z,18.03
2022-10-15T16:43:10.100Z,18.24
2022-10-15T16:45:31.581Z,18.02
2022-10-15T16:47:53.328Z,17.88
2022-10-15T16:50:15.150Z,17.82
2022-10-15T16:52:36.649Z,17.73
2022-10-15T16:54:58.088Z,17.78
2022-10-15T16:57:19.568Z,17.68
2022-10-15T16:59:41.029Z,17.71
2022-10-15T17:02:02.633Z,17.82
2022-10-15T17:04:24.138Z,17.77
2022-10-15T17:06:45.951Z,17.79
2022-10-15T17:09:07.516Z,17.55
2022-10-15T17:11:32.398Z,17.52
2022-10-15T17:13:56.924Z,17.52
2022-10-15T17:16:24.991Z,17.42
2022-10-15T17:18:47.769Z,17.30
2022-10-15T17:21:16.270Z,17.32
2022-10-15T17:23:38.644Z,17.40
2022-10-15T17:26:16.006Z,17.56
2022-10-15T17:28:37.801Z,17.33
2022-10-15T17:31:07.230Z,17.23
2022-10-15T17:33:28.734Z,17.36
2022-10-15T17:35:50.188Z,17.34
2022-10-15T17:38:11.684Z,17.26
2022-10-15T17:40:33.237Z,17.36
2022-10-15T17:42:55.844Z,17.26
2022-10-15T17:45:17.358Z,17.30
2022-10-15T17:47:38.921Z,17.30
2022-10-15T17:50:00.430Z,17.21
2022-10-15T17:52:22.105Z,17.17
2022-10-15T17:54:44.607Z,17.14
2022-10-15T17:57:06.311Z,17.11
2022-10-15T17:59:27.946Z,17.04
2022-10-15T18:02:04.752Z,16.98
2022-10-15T18:04:29.965Z,17.01
2022-10-15T18:06:51.459Z,16.98
2022-10-15T18:09:13.192Z,17.02
2022-10-15T18:11:35.263Z,17.09
2022-10-15T18:13:56.743Z,17.16
2022-10-15T18:16:20.631Z,17.32
2022-10-15T18:18:42.372Z,17.16
2022-10-15T18:21:10.213Z,17.15
2022-10-15T18:26:06.498Z,17.11
2022-10-15T18:28:28.185Z,17.20
2022-10-15T18:30:49.666Z,17.24
2022-10-15T18:33:12.095Z,17.17
2022-10-15T18:35:38.796Z,17.14
2022-10-15T18:38:00.298Z,17.07
2022-10-15T18:40:21.803Z,17.09
2022-10-15T18:42:47.549Z,17.16
2022-10-15T18:45:09.833Z,17.11
2022-10-15T18:47:31.311Z,17.08
2022-10-15T18:49:52.980Z,17.08
2022-10-15T18:52:21.856Z,17.20
2022-10-15T18:54:49.742Z,17.10
2022-10-15T18:57:12.255Z,17.04
2022-10-15T18:59:33.894Z,17.06
2022-10-15T19:01:55.471Z,17.08
2022-10-15T19:04:19.360Z,16.98
2022-10-15T19:06:46.387Z,17.07
2022-10-15T19:09:11.865Z,16.98
2022-10-15T19:11:34.017Z,16.97
2022-10-15T19:13:59.321Z,17.00
2022-10-15T19:16:20.816Z,17.03
2022-10-15T19:18:42.275Z,17.01
2022-10-15T19:21:04.887Z,16.99
2022-10-15T19:23:26.823Z,17.16
2022-10-15T19:25:48.281Z,17.14
2022-10-15T19:28:09.867Z,17.20
2022-10-15T19:30:31.393Z,17.44
2022-10-15T19:32:52.883Z,17.35
2022-10-15T19:35:14.354Z,17.33
2022-10-15T19:37:35.833Z,17.48
2022-10-15T19:39:57.321Z,17.53
2022-10-15T19:42:18.992Z,17.58
2022-10-15T19:44:40.778Z,17.56
2022-10-15T19:47:02.259Z,17.74
2022-10-15T19:49:25.038Z,17.50
2022-10-15T19:51:48.150Z,17.48
2022-10-15T19:54:10.124Z,17.51
2022-10-15T19:56:33.022Z,17.39
2022-10-15T19:58:56.470Z,17.33
2022-10-15T20:01:18.014Z,17.35
2022-10-15T20:03:40.086Z,17.47
2022-10-15T20:06:02.944Z,17.37
2022-10-15T20:08:24.974Z,17.63
2022-10-15T20:10:48.527Z,17.49
2022-10-15T20:13:10.474Z,17.59
2022-10-15T20:15:31.944Z,17.63
2022-10-15T20:17:53.431Z,17.59
2022-10-15T20:20:15.187Z,17.57
2022-10-15T20:22:36.763Z,17.69
2022-10-15T20:24:58.396Z,17.71
2022-10-15T20:27:19.894Z,17.65
2022-10-15T20:29:41.438Z,17.66
2022-10-15T20:32:10.992Z,17.49
2022-10-15T20:34:44.545Z,17.48
2022-10-15T20:37:06.096Z,17.45
2022-10-15T20:39:27.558Z,17.44
2022-10-15T20:41:49.352Z,17.43
2022-10-15T20:44:11.783Z,17.49
2022-10-15T20:46:39.436Z,17.35
2022-10-15T20:49:08.608Z,17.20
2022-10-15T20:51:30.674Z,17.42
2022-10-15T20:53:52.815Z,17.45
2022-10-15T20:56:14.392Z,17.26
2022-10-15T20:58:35.857Z,17.21
2022-10-15T21:00:57.953Z,17.25
2022-10-15T21:03:19.597Z,17.27
2022-10-15T21:05:41.077Z,17.49
2022-10-15T21:08:02.586Z,17.51
2022-10-15T21:10:24.321Z,17.49
2022-10-15T21:12:45.789Z,17.55
2022-10-15T21:15:07.732Z,17.57
2022-10-15T21:17:29.295Z,17.35
2022-10-15T21:19:52.852Z,17.21
2022-10-15T21:22:14.596Z,17.39
2022-10-15T21:24:36.499Z,17.47
2022-10-15T21:26:58.099Z,17.53
2022-10-15T21:29:20.388Z,17.60
2022-10-15T21:31:43.386Z,17.62
2022-10-15T21:34:04.853Z,17.71
2022-10-15T21:36:28.007Z,17.70
2022-10-15T21:38:52.964Z,17.70
2022-10-15T21:41:14.520Z,17.58
2022-10-15T21:43:36.108Z,17.55
2022-10-15T21:46:13.482Z,17.40
2022-10-15T21:48:36.681Z,17.47
2022-10-15T21:50:58.292Z,17.53
2022-10-15T21:53:19.744Z,17.57
2022-10-15T21:55:41.270Z,17.46
2022-10-15T21:58:02.728Z,17.57
2022-10-15T22:00:25.370Z,17.56
2022-10-15T22:02:50.045Z,17.57
2022-10-15T22:05:11.539Z,17.49
2022-10-15T22:07:34.614Z,17.46
2022-10-15T22:09:58.602Z,17.48
2022-10-15T22:12:21.232Z,17.44
2022-10-15T22:14:43.013Z,17.37
2022-10-15T22:17:04.608Z,17.08
2022-10-15T22:19:26.145Z,16.94
2022-10-15T22:21:47.602Z,16.91
2022-10-15T22:24:17.834Z,17.08
2022-10-15T22:26:42.082Z,17.12
2022-10-15T22:29:09.235Z,17.19
2022-10-15T22:31:30.800Z,17.24
2022-10-15T22:33:53.116Z,17.26
2022-10-15T22:36:18.864Z,17.27
2022-10-15T22:38:42.129Z,17.34
2022-10-15T22:41:04.801Z,17.31
2022-10-15T22:43:26.329Z,17.26
2022-10-15T22:45:47.849Z,17.14
2022-10-15T22:48:09.323Z,17.21
2022-10-15T22:50:30.825Z,17.04
2022-10-15T22:52:52.342Z,17.23
2022-10-15T22:55:13.916Z,17.27
2022-10-15T22:57:35.348Z,17.31
2022-10-15T22:59:58.677Z,17.28
2022-10-15T23:02:21.588Z,17.12
2022-10-15T23:04:43.063Z,17.02
2022-10-15T23:07:04.530Z,17.07
2022-10-15T23:09:26.005Z,17.12
2022-10-15T23:11:47.500Z,17.06
2022-10-15T23:14:14.594Z,16.97
2022-10-15T23:16:38.438Z,16.84
2022-10-15T23:19:05.611Z,17.06
2022-10-15T23:21:27.026Z,17.12
2022-10-15T23:23:48.634Z,17.11
2022-10-15T23:26:15.576Z,17.12
2022-10-15T23:28:37.161Z,16.99
2022-10-15T23:30:58.710Z,16.96
2022-10-15T23:33:20.218Z,17.02
2022-10-15T23:35:41.667Z,17.05
2022-10-15T23:38:03.158Z,17.01
2022-10-15T23:40:24.701Z,16.98
2022-10-15T23:42:46.196Z,16.99
2022-10-15T23:45:07.859Z,17.02
2022-10-15T23:47:29.343Z,17.06
2022-10-15T23:49:50.950Z,16.89
2022-10-15T23:52:12.396Z,17.00
2022-10-15T23:54:33.920Z,16.92
2022-10-15T23:56:55.354Z,16.94
2022-10-15T23:59:18.224Z,16.91
